Time;durP1;ratioP1;P1;durP2;ratioP2;P2;SDS_P1;SDS_P2;PMS_P1;PMS_P2;Temp;Humidity;BMP_temperature;BMP_pressure;BME280_temperature;BME280_humidity;BME280_pressure;Samples;Min_cycle;Max_cycle;Signal;HPM_P1;HPM_P2
2023/12/02 00:01:23;;;;;;;15.07;8.67;;;1.00;99.90;;;;;;10414060;28;20197;-81
2023/12/02 00:06:44;;;;;;;17.13;9.57;;;1.00;99.90;;;;;;10400957;28;20196;-80
2023/12/02 00:12:05;;;;;;;14.50;9.37;;;1.00;1.00;;;;;;10428075;28;20230;-80
2023/12/02 00:17:27;;;;;;;16.53;9.43;;;1.00;1.00;;;;;;10412473;28;20219;-80
2023/12/02 00:22:48;;;;;;;16.73;9.77;;;1.00;1.00;;;;;;10402320;28;20208;-79
2023/12/02 00:28:10;;;;;;;16.50;10.20;;;1.00;1.00;;;;;;10433091;28;20251;-81
2023/12/02 00:33:31;;;;;;;17.40;10.13;;;1.10;1.00;;;;;;10397147;28;20561;-80
2023/12/02 00:38:53;;;;;;;15.37;9.33;;;1.10;1.00;;;;;;10429942;28;20316;-80
2023/12/02 00:44:14;;;;;;;17.50;9.40;;;1.10;1.00;;;;;;10413377;28;20268;-82
2023/12/02 00:49:35;;;;;;;20.20;10.23;;;1.20;1.00;;;;;;10407871;28;20459;-80
2023/12/02 00:54:56;;;;;;;21.10;11.43;;;1.10;1.00;;;;;;10399299;28;20228;-79
2023/12/02 01:00:18;;;;;;;26.17;12.73;;;1.10;1.00;;;;;;10414350;28;20194;-78
2023/12/02 01:05:39;;;;;;;22.03;11.13;;;1.20;1.00;;;;;;10404438;28;20215;-81
2023/12/02 01:11:01;;;;;;;19.60;10.23;;;1.20;1.00;;;;;;10402077;28;20201;-81
2023/12/02 01:16:22;;;;;;;19.13;9.70;;;1.10;1.00;;;;;;10401749;28;20228;-81
2023/12/02 01:21:43;;;;;;;19.63;10.43;;;1.10;1.00;;;;;;10397736;28;20382;-82
2023/12/02 01:27:05;;;;;;;19.47;10.80;;;1.20;1.00;;;;;;10413836;28;20204;-81
2023/12/02 01:32:26;;;;;;;21.43;10.70;;;1.10;99.90;;;;;;10410403;28;20251;-81
2023/12/02 01:37:47;;;;;;;19.73;10.93;;;1.00;1.00;;;;;;10425546;28;20488;-81
2023/12/02 01:43:23;;;;;;;19.00;10.13;;;1.00;1.00;;;;;;10415804;28;20197;-81
2023/12/02 01:48:45;;;;;;;16.20;9.33;;;1.00;99.90;;;;;;10412966;28;20385;-82
2023/12/02 01:54:07;;;;;;;14.77;8.73;;;0.90;1.00;;;;;;10410646;28;20219;-81
2023/12/02 01:59:29;;;;;;;13.03;8.20;;;0.80;99.90;;;;;;10396142;28;20281;-81
2023/12/02 02:04:54;;;;;;;12.43;7.27;;;0.80;99.90;;;;;;10411271;28;20261;-79
2023/12/02 02:10:16;;;;;;;12.57;8.07;;;0.80;1.00;;;;;;10396420;28;20213;-81
2023/12/02 02:15:37;;;;;;;15.90;8.27;;;0.90;1.00;;;;;;10394407;28;20759;-80
2023/12/02 02:20:58;;;;;;;20.30;9.23;;;0.90;1.00;;;;;;10395601;28;20197;-81
2023/12/02 02:26:19;;;;;;;16.90;9.17;;;0.70;1.00;;;;;;10381143;28;20288;-81
2023/12/02 02:31:40;;;;;;;18.73;9.67;;;0.70;1.00;;;;;;10411089;28;20207;-79
2023/12/02 02:37:02;;;;;;;18.07;9.37;;;0.70;1.00;;;;;;10381323;28;20240;-80
2023/12/02 02:42:23;;;;;;;18.73;10.57;;;0.80;1.00;;;;;;10395287;28;20200;-80
2023/12/02 02:47:44;;;;;;;19.17;10.00;;;0.70;1.00;;;;;;10383611;28;20255;-80
2023/12/02 02:53:05;;;;;;;18.77;9.23;;;0.70;1.00;;;;;;10422536;28;20299;-82
2023/12/02 02:58:29;;;;;;;19.40;9.80;;;0.70;1.00;;;;;;10410751;28;20200;-79
2023/12/02 03:03:50;;;;;;;17.90;9.40;;;0.70;1.00;;;;;;10410471;28;20204;-80
2023/12/02 03:09:12;;;;;;;13.53;8.60;;;0.60;1.00;;;;;;10394673;28;20197;-79
2023/12/02 03:14:33;;;;;;;14.07;7.77;;;0.70;1.00;;;;;;10426913;28;20245;-80
2023/12/02 03:19:54;;;;;;;10.07;6.27;;;0.80;1.00;;;;;;10366521;28;20197;-81
2023/12/02 03:25:15;;;;;;;10.43;4.93;;;0.80;1.00;;;;;;10393729;28;20504;-81
2023/12/02 03:30:38;;;;;;;15.37;8.20;;;0.70;99.90;;;;;;10400218;28;20204;-81
2023/12/02 03:36:00;;;;;;;14.87;8.23;;;0.60;99.90;;;;;;10361088;28;20229;-82
2023/12/02 03:41:21;;;;;;;13.93;8.10;;;0.60;99.90;;;;;;10360858;28;20201;-81
2023/12/02 03:46:43;;;;;;;17.37;10.93;;;0.60;99.90;;;;;;10361074;28;20253;-81
2023/12/02 03:52:04;;;;;;;14.73;9.17;;;0.50;99.90;;;;;;10414549;28;20255;-80
2023/12/02 03:57:26;;;;;;;11.73;7.23;;;0.50;1.00;;;;;;10400969;28;20796;-79
2023/12/02 04:02:47;;;;;;;10.20;6.43;;;0.60;1.00;;;;;;10413277;28;20219;-81
2023/12/02 04:08:09;;;;;;;10.57;6.77;;;0.50;99.90;;;;;;10386796;28;20268;-81
2023/12/02 04:13:30;;;;;;;13.60;7.67;;;0.60;99.90;;;;;;10416726;28;20292;-82
2023/12/02 04:18:51;;;;;;;11.83;6.70;;;0.60;99.90;;;;;;10386534;28;20275;-81
2023/12/02 04:24:12;;;;;;;9.70;5.97;;;0.70;99.90;;;;;;10413782;28;20215;-82
2023/12/02 04:29:37;;;;;;;13.17;7.70;;;0.60;77.60;;;;;;10433008;28;20396;-81
2023/12/02 04:34:59;;;;;;;19.23;10.50;;;0.60;99.90;;;;;;10428651;28;20279;-81
2023/12/02 04:40:20;;;;;;;22.90;12.37;;;0.60;99.90;;;;;;10432097;28;20273;-81
2023/12/02 04:45:41;;;;;;;25.70;13.70;;;0.60;99.90;;;;;;10398979;28;20468;-82
2023/12/02 04:51:03;;;;;;;25.13;13.47;;;0.70;1.00;;;;;;10412257;28;20304;-79
2023/12/02 04:56:24;;;;;;;17.07;10.67;;;0.60;1.00;;;;;;10414471;28;20599;-81
2023/12/02 05:01:45;;;;;;;14.47;8.73;;;0.50;1.00;;;;;;10398326;28;20638;-83
2023/12/02 05:07:06;;;;;;;21.37;11.57;;;0.50;1.00;;;;;;10412397;28;20202;-80
2023/12/02 05:12:28;;;;;;;20.90;11.13;;;0.50;1.00;;;;;;10412518;28;20372;-80
2023/12/02 05:17:49;;;;;;;15.73;9.70;;;0.40;18.30;;;;;;10425835;28;20220;-80
2023/12/02 05:23:10;;;;;;;17.20;8.10;;;0.50;99.90;;;;;;10416557;28;20200;-79
2023/12/02 05:28:31;;;;;;;11.17;6.53;;;0.50;99.90;;;;;;10411157;28;20365;-79
2023/12/02 05:33:52;;;;;;;10.50;6.33;;;0.50;92.20;;;;;;10396741;28;20259;-82
2023/12/02 05:39:14;;;;;;;12.47;7.50;;;0.40;99.90;;;;;;10380494;28;20224;-81
2023/12/02 05:44:35;;;;;;;11.87;7.07;;;0.60;55.90;;;;;;10398003;28;20193;-81
2023/12/02 05:49:56;;;;;;;13.40;7.13;;;0.50;1.00;;;;;;10410073;28;20238;-82
2023/12/02 05:55:17;;;;;;;22.93;11.60;;;0.60;34.10;;;;;;10382319;28;20223;-81
2023/12/02 06:00:39;;;;;;;23.63;12.03;;;0.60;1.00;;;;;;10395991;28;20189;-81
2023/12/02 06:06:00;;;;;;;18.53;11.23;;;0.50;1.00;;;;;;10434231;28;20251;-81
2023/12/02 06:11:21;;;;;;;19.37;10.37;;;0.50;14.50;;;;;;10433996;28;20206;-83
2023/12/02 06:16:42;;;;;;;15.77;9.23;;;0.50;1.00;;;;;;10413027;28;20420;-81
2023/12/02 06:22:04;;;;;;;20.07;9.97;;;0.50;1.00;;;;;;10439008;28;20234;-81
2023/12/02 06:27:25;;;;;;;27.87;11.30;;;0.50;1.00;;;;;;10438891;28;20208;-82
2023/12/02 06:32:46;;;;;;;22.40;12.47;;;0.50;1.00;;;;;;10394786;28;20202;-81
2023/12/02 06:38:07;;;;;;;22.67;11.70;;;0.40;1.00;;;;;;10414086;28;20349;-81
2023/12/02 06:43:28;;;;;;;29.13;13.17;;;0.40;1.00;;;;;;10395232;28;20483;-81
2023/12/02 06:48:50;;;;;;;28.77;14.83;;;0.40;1.00;;;;;;10408503;28;20466;-81
2023/12/02 06:54:11;;;;;;;23.20;13.80;;;0.30;1.00;;;;;;10394588;28;20225;-79
2023/12/02 06:59:32;;;;;;;21.00;12.23;;;0.30;1.00;;;;;;10410890;28;20383;-82
2023/12/02 07:04:54;;;;;;;38.17;17.20;;;0.40;1.00;;;;;;10407344;28;20220;-81
2023/12/02 07:10:14;;;;;;;51.00;24.67;;;0.30;99.90;;;;;;10408559;28;20230;-83
2023/12/02 07:15:36;;;;;;;52.70;26.70;;;0.30;34.50;;;;;;10421795;28;20228;-82
2023/12/02 07:20:58;;;;;;;52.57;25.67;;;0.30;1.00;;;;;;10408041;28;20192;-82
2023/12/02 07:26:19;;;;;;;49.20;22.23;;;0.30;1.00;;;;;;10407760;28;20227;-80
2023/12/02 07:31:40;;;;;;;37.33;18.57;;;0.30;1.00;;;;;;10421531;28;20199;-80
2023/12/02 07:37:02;;;;;;;32.13;17.83;;;0.30;99.90;;;;;;10392686;28;20231;-83
2023/12/02 07:42:24;;;;;;;25.70;14.67;;;0.50;1.00;;;;;;10410075;28;20197;-82
2023/12/02 07:47:45;;;;;;;19.90;12.20;;;0.60;99.90;;;;;;10406941;28;20220;-83
2023/12/02 07:53:06;;;;;;;18.37;10.93;;;0.70;68.60;;;;;;10368902;28;20240;-83
2023/12/02 07:58:27;;;;;;;13.60;7.73;;;0.80;1.00;;;;;;10352757;28;20223;-82
2023/12/02 08:03:48;;;;;;;12.13;7.43;;;0.90;1.00;;;;;;10360911;28;20503;-82
2023/12/02 08:09:10;;;;;;;14.90;8.17;;;0.90;1.00;;;;;;10410320;28;20209;-82
2023/12/02 08:14:31;;;;;;;19.37;10.77;;;1.00;1.00;;;;;;10424686;28;20304;-81
2023/12/02 08:19:52;;;;;;;11.97;7.57;;;1.00;1.00;;;;;;10400082;28;20236;-82
2023/12/02 08:25:14;;;;;;;8.67;5.40;;;1.20;99.90;;;;;;10413597;28;20518;-81
2023/12/02 08:30:35;;;;;;;9.57;5.80;;;1.10;99.90;;;;;;10413448;28;20197;-80
2023/12/02 08:35:56;;;;;;;9.73;6.83;;;1.10;99.90;;;;;;10398558;28;20232;-80
2023/12/02 08:41:18;;;;;;;29.67;18.77;;;1.30;99.90;;;;;;10385331;28;20277;-82
2023/12/02 08:46:39;;;;;;;48.40;25.33;;;1.40;6.70;;;;;;10415343;28;20203;-80
2023/12/02 08:52:00;;;;;;;31.37;17.37;;;1.60;1.00;;;;;;10406081;28;20340;-80
2023/12/02 08:57:21;;;;;;;21.07;13.57;;;1.70;1.00;;;;;;10412231;28;20221;-81
2023/12/02 09:02:42;;;;;;;32.67;19.07;;;1.60;1.00;;;;;;10412161;28;20200;-82
2023/12/02 09:08:04;;;;;;;50.60;27.60;;;1.60;1.00;;;;;;10410600;28;20281;-82
2023/12/02 09:13:41;;;;;;;32.43;19.20;;;1.60;1.00;;;;;;10397406;28;20514;-82
2023/12/02 09:19:47;;;;;;;36.70;19.27;;;1.60;1.00;;;;;;10386188;28;20209;-82
2023/12/02 09:25:13;;;;;;;56.67;26.97;;;1.60;99.90;;;;;;10411683;28;20515;-80
2023/12/02 09:30:39;;;;;;;61.03;30.60;;;1.80;91.30;;;;;;10398151;28;20419;-82
2023/12/02 09:36:02;;;;;;;62.60;29.93;;;2.00;1.00;;;;;;10426984;28;20309;-83
2023/12/02 09:41:37;;;;;;;31.53;17.40;;;2.20;1.00;;;;;;10411043;28;20283;-82
2023/12/02 09:47:17;;;;;;;33.57;15.87;;;2.40;15.70;;;;;;10424960;28;20190;-81
2023/12/02 09:52:53;;;;;;;47.33;22.93;;;2.40;99.90;;;;;;10397454;28;20233;-82
2023/12/02 09:58:25;;;;;;;32.43;17.60;;;2.40;99.90;;;;;;10397388;28;20247;-79
2023/12/02 10:04:18;;;;;;;25.70;13.90;;;2.30;99.90;;;;;;10411284;28;20600;-79
2023/12/02 10:10:01;;;;;;;23.30;13.10;;;2.30;99.90;;;;;;10350231;28;20203;-81
2023/12/02 10:15:27;;;;;;;28.83;13.60;;;2.20;1.00;;;;;;10352155;28;20242;-83
2023/12/02 10:21:07;;;;;;;28.67;13.07;;;2.20;1.00;;;;;;10353047;28;20256;-82
2023/12/02 10:26:32;;;;;;;25.90;13.10;;;2.20;1.00;;;;;;10351045;28;20211;-81
2023/12/02 10:32:18;;;;;;;19.60;10.57;;;2.20;1.00;;;;;;10339657;28;20212;-82
2023/12/02 10:37:43;;;;;;;19.40;10.93;;;2.10;99.90;;;;;;10336991;28;20549;-80
2023/12/02 10:43:10;;;;;;;24.33;12.97;;;2.00;99.90;;;;;;10390140;28;20189;-81
2023/12/02 10:48:34;;;;;;;24.60;13.70;;;2.10;36.40;;;;;;10424915;28;20186;-80
2023/12/02 10:53:59;;;;;;;22.07;12.23;;;2.00;99.90;;;;;;10411808;28;20218;-80
2023/12/02 10:59:23;;;;;;;25.20;14.23;;;2.00;1.00;;;;;;10381167;28;20211;-82
2023/12/02 11:04:48;;;;;;;24.33;13.43;;;2.00;1.00;;;;;;10410299;28;20202;-80
2023/12/02 11:10:13;;;;;;;23.10;13.37;;;2.00;1.00;;;;;;10424951;28;20232;-81
2023/12/02 11:16:01;;;;;;;22.13;13.13;;;1.90;1.00;;;;;;10409654;28;20217;-80
2023/12/02 11:21:31;;;;;;;18.20;10.13;;;1.90;1.00;;;;;;10380264;28;20197;-81
2023/12/02 11:27:29;;;;;;;16.07;10.03;;;2.00;1.00;;;;;;10427042;28;20205;-82
2023/12/02 11:32:53;;;;;;;20.40;11.83;;;2.20;1.00;;;;;;10393905;28;20197;-81
2023/12/02 11:38:19;;;;;;;21.47;13.27;;;2.30;99.90;;;;;;10369575;28;20424;-81
2023/12/02 11:43:48;;;;;;;29.67;15.20;;;2.30;1.00;;;;;;10367234;28;20191;-81
2023/12/02 11:49:28;;;;;;;28.07;14.67;;;2.30;99.90;;;;;;10379207;28;20221;-81
2023/12/02 11:55:19;;;;;;;21.83;13.97;;;2.30;1.00;;;;;;10415179;28;20443;-81
2023/12/02 12:01:01;;;;;;;24.57;12.93;;;2.20;99.90;;;;;;10389828;28;20307;-82
2023/12/02 12:07:04;;;;;;;25.47;13.40;;;2.30;30.90;;;;;;10415334;28;20540;-81
2023/12/02 12:12:28;;;;;;;27.17;14.33;;;2.30;95.10;;;;;;10330726;28;20210;-81
2023/12/02 12:17:49;;;;;;;26.57;14.00;;;2.30;99.90;;;;;;10341677;28;20234;-81
2023/12/02 12:23:11;;;;;;;24.37;11.47;;;2.30;1.00;;;;;;10341408;28;20213;-82
2023/12/02 12:28:32;;;;;;;20.47;11.50;;;2.20;1.00;;;;;;10371587;28;20410;-82
2023/12/02 12:33:54;;;;;;;53.87;18.47;;;2.20;1.00;;;;;;10339943;28;20234;-82
2023/12/02 12:39:16;;;;;;;66.67;25.70;;;2.10;1.00;;;;;;10357225;28;20233;-81
2023/12/02 12:44:40;;;;;;;46.43;21.90;;;2.10;1.00;;;;;;10328366;28;20193;-83
2023/12/02 12:50:03;;;;;;;37.87;18.43;;;2.10;99.90;;;;;;10400644;28;20225;-84
2023/12/02 12:55:26;;;;;;;34.30;16.47;;;2.00;1.00;;;;;;10400410;28;20305;-81
2023/12/02 13:00:50;;;;;;;28.10;16.77;;;2.00;99.90;;;;;;10415453;28;20224;-81
2023/12/02 13:06:20;;;;;;;38.67;17.47;;;2.00;99.90;;;;;;10398301;28;20211;-82
2023/12/02 13:12:33;;;;;;;38.37;15.90;;;2.00;99.90;;;;;;10392109;28;20366;-81
2023/12/02 13:17:55;;;;;;;20.47;11.03;;;2.10;1.00;;;;;;10325942;28;20234;-82
2023/12/02 13:23:21;;;;;;;22.37;11.70;;;1.90;1.00;;;;;;10324613;28;20238;-82
2023/12/02 13:28:42;;;;;;;20.50;11.10;;;1.80;99.90;;;;;;10324866;28;20221;-81
2023/12/02 13:34:22;;;;;;;21.33;12.60;;;1.80;1.00;;;;;;10337227;28;20268;-82
2023/12/02 13:39:50;;;;;;;22.30;14.20;;;1.80;99.90;;;;;;10354333;28;20213;-81
2023/12/02 13:45:12;;;;;;;25.67;15.33;;;1.90;1.00;;;;;;10343159;28;20205;-81
2023/12/02 13:50:58;;;;;;;30.13;16.10;;;1.90;1.00;;;;;;10426707;28;20228;-83
2023/12/02 13:56:26;;;;;;;21.57;12.47;;;1.90;99.90;;;;;;10410681;28;20225;-81
2023/12/02 14:02:24;;;;;;;24.97;14.07;;;1.80;1.00;;;;;;10394855;28;20197;-82
2023/12/02 14:07:48;;;;;;;27.30;15.80;;;1.80;99.90;;;;;;10405793;28;20480;-82
2023/12/02 14:13:24;;;;;;;31.90;17.90;;;1.80;1.00;;;;;;10396555;28;20455;-83
2023/12/02 14:19:27;;;;;;;28.43;17.43;;;1.80;1.00;;;;;;10353523;28;20747;-81
2023/12/02 14:24:48;;;;;;;43.00;22.30;;;1.80;1.00;;;;;;10357567;28;20221;-81
2023/12/02 14:30:22;;;;;;;39.80;21.90;;;1.80;1.00;;;;;;10365977;28;20500;-83
2023/12/02 14:35:59;;;;;;;33.33;18.07;;;1.80;45.30;;;;;;10395380;28;20315;-81
2023/12/02 14:41:36;;;;;;;37.37;22.73;;;1.70;1.00;;;;;;10397931;28;20277;-81
2023/12/02 14:47:04;;;;;;;44.87;26.37;;;1.60;99.90;;;;;;10409042;28;20193;-81
2023/12/02 14:52:26;;;;;;;52.43;27.97;;;1.60;1.00;;;;;;10378154;28;20316;-81
2023/12/02 14:58:27;;;;;;;46.87;25.70;;;1.60;99.90;;;;;;10408598;28;20237;-81
2023/12/02 15:03:47;;;;;;;34.53;19.10;;;1.60;1.00;;;;;;10359791;28;20198;-81
2023/12/02 15:09:18;;;;;;;41.50;23.00;;;1.60;99.90;;;;;;10386745;28;20244;-80
2023/12/02 15:14:40;;;;;;;57.27;29.70;;;1.50;1.00;;;;;;10384273;28;20271;-81
2023/12/02 15:20:11;;;;;;;74.23;33.90;;;1.50;1.00;;;;;;10394607;28;20508;-81
2023/12/02 15:25:32;;;;;;;51.07;25.50;;;1.60;99.90;;;;;;10432219;28;20208;-82
2023/12/02 15:30:54;;;;;;;28.23;17.20;;;1.60;1.00;;;;;;10435122;28;20248;-82
2023/12/02 15:36:16;;;;;;;26.13;14.53;;;1.60;1.00;;;;;;10401858;28;20516;-81
2023/12/02 15:41:38;;;;;;;25.27;14.77;;;1.60;1.00;;;;;;10415598;28;20242;-82
2023/12/02 15:47:01;;;;;;;29.47;16.27;;;1.60;1.00;;;;;;10362971;28;20204;-81
2023/12/02 15:52:21;;;;;;;34.90;17.37;;;1.60;1.00;;;;;;10401434;28;20224;-80
2023/12/02 15:57:45;;;;;;;31.23;17.53;;;1.50;79.30;;;;;;10415135;28;20235;-81
2023/12/02 16:03:07;;;;;;;31.27;17.40;;;1.40;99.90;;;;;;10415399;28;20197;-81
2023/12/02 16:08:31;;;;;;;24.53;14.93;;;1.40;1.00;;;;;;10417141;28;20213;-81
2023/12/02 16:13:52;;;;;;;23.47;15.10;;;1.40;1.00;;;;;;10391731;28;20244;-81
2023/12/02 16:19:15;;;;;;;26.87;15.00;;;1.40;1.00;;;;;;10395694;28;20430;-82
2023/12/02 16:24:38;;;;;;;21.63;12.70;;;1.30;1.00;;;;;;10386030;28;20392;-82
2023/12/02 16:30:00;;;;;;;20.47;12.03;;;1.30;99.90;;;;;;10399657;28;20193;-81
2023/12/02 16:35:21;;;;;;;27.30;15.63;;;1.30;99.90;;;;;;10398505;28;20228;-81
2023/12/02 16:40:54;;;;;;;20.60;12.90;;;1.40;99.90;;;;;;10418622;28;20197;-81
2023/12/02 16:46:15;;;;;;;23.53;13.20;;;1.40;99.90;;;;;;10417645;28;20213;-82
2023/12/02 16:51:44;;;;;;;25.30;13.07;;;1.40;99.90;;;;;;10415425;28;20523;-82
2023/12/02 16:57:18;;;;;;;31.23;14.97;;;1.30;99.90;;;;;;10412893;28;20407;-82
2023/12/02 17:02:40;;;;;;;28.87;14.73;;;1.30;99.90;;;;;;10429087;28;20201;-81
2023/12/02 17:08:05;;;;;;;25.23;14.43;;;1.30;1.00;;;;;;10401307;28;20208;-81
2023/12/02 17:13:48;;;;;;;25.57;13.57;;;1.30;1.00;;;;;;10414642;28;20283;-82
2023/12/02 17:19:12;;;;;;;30.97;16.13;;;1.40;1.00;;;;;;10379790;28;20229;-81
2023/12/02 17:24:40;;;;;;;29.83;16.10;;;1.40;1.00;;;;;;10359993;28;20197;-81
2023/12/02 17:30:03;;;;;;;24.53;14.13;;;1.40;1.00;;;;;;10376119;28;20198;-82
2023/12/02 17:35:24;;;;;;;26.47;14.20;;;1.50;1.00;;;;;;10343087;28;20226;-81
2023/12/02 17:40:46;;;;;;;26.90;13.60;;;1.50;1.00;;;;;;10359201;28;20200;-82
2023/12/02 17:46:07;;;;;;;23.97;12.93;;;1.50;1.00;;;;;;10356401;28;20237;-82
2023/12/02 17:51:28;;;;;;;29.07;15.60;;;1.50;99.90;;;;;;10421142;28;20233;-81
2023/12/02 17:56:49;;;;;;;29.97;15.27;;;1.60;99.90;;;;;;10396706;28;20228;-82
2023/12/02 18:02:10;;;;;;;30.43;16.77;;;1.60;99.90;;;;;;10382402;28;20275;-80
2023/12/02 18:07:31;;;;;;;33.13;15.53;;;1.60;99.90;;;;;;10412405;28;20200;-81
2023/12/02 18:12:53;;;;;;;29.57;16.17;;;1.60;99.90;;;;;;10426603;28;20216;-82
2023/12/02 18:18:14;;;;;;;32.87;16.93;;;1.50;99.90;;;;;;10395062;28;20217;-82
2023/12/02 18:23:38;;;;;;;43.80;17.77;;;1.50;1.00;;;;;;10375742;28;20295;-81
2023/12/02 18:28:59;;;;;;;51.00;19.77;;;1.40;1.00;;;;;;10428926;28;20193;-82
2023/12/02 18:34:20;;;;;;;37.40;16.97;;;1.40;1.00;;;;;;10424229;28;20239;-82
2023/12/02 18:39:41;;;;;;;51.67;19.77;;;1.40;1.00;;;;;;10407460;28;20224;-82
2023/12/02 18:45:04;;;;;;;45.60;19.20;;;1.50;1.00;;;;;;10380181;28;20208;-81
2023/12/02 18:50:25;;;;;;;35.37;16.37;;;1.50;1.00;;;;;;10392310;28;20240;-80
2023/12/02 18:55:46;;;;;;;30.27;15.37;;;1.50;99.90;;;;;;10395535;28;20460;-81
2023/12/02 19:01:07;;;;;;;25.83;11.77;;;1.50;99.90;;;;;;10393585;28;20219;-81
2023/12/02 19:06:29;;;;;;;19.80;9.93;;;1.50;99.90;;;;;;10380169;28;20225;-82
2023/12/02 19:11:51;;;;;;;34.93;20.30;;;1.40;99.90;;;;;;10395092;28;20201;-83
2023/12/02 19:17:12;;;;;;;23.03;11.13;;;1.40;1.00;;;;;;10387702;28;20221;-82
2023/12/02 19:22:33;;;;;;;15.53;9.03;;;1.40;1.00;;;;;;10415817;28;20201;-85
2023/12/02 19:27:57;;;;;;;12.00;8.37;;;1.50;99.90;;;;;;10387115;28;20205;-82
2023/12/02 19:33:18;;;;;;;15.17;9.20;;;1.40;99.90;;;;;;10395976;28;20208;-83
2023/12/02 19:38:40;;;;;;;14.87;10.27;;;1.40;99.90;;;;;;10394179;28;20584;-85
2023/12/02 19:44:01;;;;;;;18.23;11.57;;;1.30;1.00;;;;;;10421610;28;20255;-84
2023/12/02 19:49:23;;;;;;;16.57;10.90;;;1.30;1.00;;;;;;10392680;28;20237;-86
2023/12/02 19:54:44;;;;;;;31.03;16.97;;;1.40;1.00;;;;;;10379139;28;20204;-85
2023/12/02 20:00:06;;;;;;;34.07;18.40;;;1.40;1.00;;;;;;10394678;28;20523;-84
2023/12/02 20:05:28;;;;;;;26.20;16.20;;;1.40;1.00;;;;;;10408346;28;20202;-83
2023/12/02 20:10:51;;;;;;;17.77;10.20;;;1.40;1.00;;;;;;10400285;28;20500;-85
2023/12/02 20:16:12;;;;;;;16.20;9.83;;;1.40;1.00;;;;;;10408341;28;20289;-85
2023/12/02 20:21:35;;;;;;;22.73;11.07;;;1.40;1.00;;;;;;10409839;28;20457;-82
2023/12/02 20:26:56;;;;;;;18.53;10.97;;;1.40;1.00;;;;;;10439591;28;20225;-82
2023/12/02 20:32:17;;;;;;;22.00;12.70;;;1.40;1.00;;;;;;10393485;28;20298;-85
2023/12/02 20:37:38;;;;;;;18.80;10.73;;;1.40;99.90;;;;;;10408185;28;20257;-83
2023/12/02 20:42:59;;;;;;;14.30;8.47;;;1.40;1.00;;;;;;10419154;28;20236;-82
2023/12/02 20:48:21;;;;;;;14.43;8.70;;;1.40;99.90;;;;;;10386213;28;20245;-85
2023/12/02 20:53:42;;;;;;;16.57;9.23;;;1.30;1.00;;;;;;10414077;28;20242;-84
2023/12/02 20:59:03;;;;;;;13.10;8.43;;;1.30;1.00;;;;;;10383591;28;20303;-82
2023/12/02 21:04:25;;;;;;;12.27;7.37;;;1.30;1.00;;;;;;10385378;28;20228;-83
2023/12/02 21:09:46;;;;;;;16.97;9.57;;;1.20;99.90;;;;;;10400230;28;20479;-85
2023/12/02 21:15:08;;;;;;;18.30;9.27;;;1.20;1.00;;;;;;10399558;28;20219;-83
2023/12/02 21:20:33;;;;;;;21.77;9.63;;;1.30;99.90;;;;;;10398361;28;20280;-84
2023/12/02 21:25:54;;;;;;;26.03;11.83;;;1.30;1.00;;;;;;10391251;28;20255;-83
2023/12/02 21:31:19;;;;;;;20.97;11.53;;;1.30;1.00;;;;;;10404236;28;20203;-82
2023/12/02 21:36:41;;;;;;;13.30;8.60;;;1.30;1.00;;;;;;10394853;28;20232;-82
2023/12/02 21:42:03;;;;;;;15.30;9.73;;;1.30;1.00;;;;;;10410696;28;20232;-83
2023/12/02 21:47:25;;;;;;;13.17;9.73;;;1.40;1.00;;;;;;10419620;28;20197;-81
2023/12/02 21:52:46;;;;;;;13.70;8.50;;;1.40;1.00;;;;;;10398429;28;20236;-86
2023/12/02 21:58:08;;;;;;;11.13;6.23;;;1.50;1.00;;;;;;10370275;28;20240;-85
2023/12/02 22:03:35;;;;;;;7.20;5.30;;;1.50;1.00;;;;;;10384003;28;20193;-84
2023/12/02 22:08:56;;;;;;;8.10;5.80;;;1.50;99.90;;;;;;10396528;28;20197;-86
2023/12/02 22:14:20;;;;;;;11.07;6.70;;;1.50;99.90;;;;;;10429602;28;20200;-85
2023/12/02 22:19:42;;;;;;;11.37;6.83;;;1.50;99.90;;;;;;10384282;28;20227;-85
2023/12/02 22:25:05;;;;;;;8.13;5.70;;;1.60;99.90;;;;;;10410305;28;20205;-85
2023/12/02 22:30:57;;;;;;;8.33;5.90;;;1.50;99.90;;;;;;10413008;28;20204;-80
2023/12/02 22:36:18;;;;;;;10.30;6.13;;;1.50;99.90;;;;;;10395344;28;20430;-81
2023/12/02 22:41:39;;;;;;;16.20;8.20;;;1.50;99.90;;;;;;10395827;28;20474;-81
2023/12/02 22:47:00;;;;;;;17.93;9.40;;;1.50;99.90;;;;;;10380816;28;20400;-80
2023/12/02 22:52:21;;;;;;;17.90;8.70;;;1.50;99.90;;;;;;10441095;28;20237;-81
2023/12/02 22:57:44;;;;;;;17.73;9.03;;;1.50;99.90;;;;;;10430074;28;20236;-81
2023/12/02 23:03:06;;;;;;;12.43;7.37;;;1.50;99.90;;;;;;10443652;28;20203;-80
2023/12/02 23:08:27;;;;;;;11.00;7.80;;;1.50;99.90;;;;;;10439003;28;20177;-80
2023/12/02 23:13:50;;;;;;;11.47;7.33;;;1.50;25.30;;;;;;10437387;28;20220;-82
2023/12/02 23:19:34;;;;;;;9.97;6.77;;;1.50;62.70;;;;;;10385022;28;20493;-81
2023/12/02 23:24:55;;;;;;;14.07;7.70;;;1.50;14.20;;;;;;10395688;28;20199;-81
2023/12/02 23:30:20;;;;;;;12.53;7.77;;;1.40;99.90;;;;;;10410413;28;20205;-81
2023/12/02 23:35:41;;;;;;;14.17;8.10;;;1.40;99.90;;;;;;10410274;28;20248;-79
2023/12/02 23:41:03;;;;;;;11.53;7.57;;;1.40;99.90;;;;;;10380016;28;20244;-80
2023/12/02 23:46:25;;;;;;;9.67;7.20;;;1.40;99.90;;;;;;10405998;28;20193;-81
2023/12/02 23:51:46;;;;;;;12.97;6.83;;;1.40;99.90;;;;;;10390471;28;20241;-83
2023/12/02 23:57:08;;;;;;;11.80;6.87;;;1.50;99.90;;;;;;10387173;28;20244;-82
